Time;durP1;ratioP1;P1;durP2;ratioP2;P2;SDS_P1;SDS_P2;PMS_P1;PMS_P2;Temp;Humidity;BMP_temperature;BMP_pressure;BME280_temperature;BME280_humidity;BME280_pressure;Samples;Min_cycle;Max_cycle;Signal;HPM_P1;HPM_P2
2021/03/11 00:00:08;;;;;;;1.85;1.40;;;20.50;31.70;;;;;;5013553;28;20408;-58
2021/03/11 00:02:34;;;;;;;1.80;1.50;;;20.50;31.60;;;;;;5012187;28;20397;-57
2021/03/11 00:04:59;;;;;;;2.00;1.50;;;20.50;31.70;;;;;;5013524;28;20799;-57
2021/03/11 00:07:25;;;;;;;1.77;1.40;;;20.50;31.70;;;;;;5013199;28;20391;-57
2021/03/11 00:09:51;;;;;;;1.40;1.20;;;20.50;31.60;;;;;;5013168;28;20752;-57
2021/03/11 00:12:16;;;;;;;1.95;1.30;;;20.50;31.60;;;;;;5012735;28;20401;-57
2021/03/11 00:14:42;;;;;;;1.50;1.17;;;20.40;31.50;;;;;;5013415;28;20392;-57
2021/03/11 00:17:08;;;;;;;1.80;1.40;;;20.40;31.60;;;;;;5013295;28;20408;-57
2021/03/11 00:19:34;;;;;;;1.48;1.15;;;20.40;31.50;;;;;;5012757;28;20389;-56
2021/03/11 00:22:01;;;;;;;1.50;1.20;;;20.40;31.60;;;;;;5013227;28;20396;-57
2021/03/11 00:24:28;;;;;;;1.93;1.40;;;20.40;32.00;;;;;;5013294;28;20396;-57
2021/03/11 00:26:53;;;;;;;1.67;1.30;;;20.40;31.50;;;;;;5013144;28;20437;-57
2021/03/11 00:29:19;;;;;;;1.80;1.30;;;20.40;31.60;;;;;;5012990;28;20393;-57
2021/03/11 00:31:45;;;;;;;1.70;1.40;;;20.40;31.60;;;;;;5012145;28;20425;-57
2021/03/11 00:34:11;;;;;;;1.70;1.30;;;20.40;31.30;;;;;;5012889;28;20389;-56
2021/03/11 00:36:37;;;;;;;1.70;1.20;;;20.40;31.60;;;;;;5012929;28;20400;-56
2021/03/11 00:39:05;;;;;;;2.10;1.40;;;20.40;31.60;;;;;;5012908;28;20385;-57
2021/03/11 00:41:31;;;;;;;1.42;1.23;;;20.40;31.40;;;;;;5012416;28;20411;-57
2021/03/11 00:43:56;;;;;;;1.40;1.10;;;20.40;31.20;;;;;;5012809;28;20385;-56
2021/03/11 00:46:22;;;;;;;1.80;1.40;;;20.40;31.20;;;;;;5012134;28;20407;-57
2021/03/11 00:48:48;;;;;;;1.70;1.30;;;20.40;31.20;;;;;;5012346;28;20422;-57
2021/03/11 00:51:14;;;;;;;1.70;1.23;;;20.30;31.20;;;;;;5012466;28;20412;-57
2021/03/11 00:53:39;;;;;;;1.83;1.40;;;20.40;31.20;;;;;;5012255;28;20381;-57
2021/03/11 00:56:05;;;;;;;1.70;1.30;;;20.40;31.10;;;;;;5012609;28;20439;-57
2021/03/11 00:58:31;;;;;;;1.75;1.40;;;20.40;31.00;;;;;;5012467;28;20833;-57
2021/03/11 01:00:57;;;;;;;1.58;1.20;;;20.30;31.00;;;;;;5010984;28;20409;-57
2021/03/11 01:03:22;;;;;;;1.67;1.30;;;20.40;31.00;;;;;;5012447;28;20381;-57
2021/03/11 01:05:48;;;;;;;1.90;1.15;;;20.30;31.00;;;;;;5011971;28;20874;-57
2021/03/11 01:08:14;;;;;;;1.60;1.10;;;20.30;31.00;;;;;;5012240;28;20881;-56
2021/03/11 01:10:41;;;;;;;1.58;1.20;;;20.30;31.00;;;;;;5012336;28;20421;-58
2021/03/11 01:13:06;;;;;;;1.48;1.20;;;20.30;30.90;;;;;;5012312;28;20436;-56
2021/03/11 01:15:38;;;;;;;1.30;1.13;;;20.30;31.00;;;;;;5010548;28;20401;-57
2021/03/11 01:18:05;;;;;;;1.33;1.10;;;20.30;31.00;;;;;;5012221;28;20389;-56
2021/03/11 01:20:31;;;;;;;1.70;1.20;;;20.30;31.00;;;;;;5011979;28;20405;-57
2021/03/11 01:22:57;;;;;;;1.60;1.10;;;20.30;31.10;;;;;;5011950;28;20891;-57
2021/03/11 01:25:23;;;;;;;1.50;1.10;;;20.30;31.00;;;;;;5011500;28;20404;-57
2021/03/11 01:27:48;;;;;;;1.45;1.13;;;20.20;31.00;;;;;;5011627;28;20424;-57
2021/03/11 01:30:15;;;;;;;1.50;1.17;;;20.20;30.90;;;;;;5011590;28;20413;-58
2021/03/11 01:32:41;;;;;;;1.40;1.10;;;20.20;31.00;;;;;;5013803;28;20765;-57
2021/03/11 01:35:08;;;;;;;1.40;1.30;;;20.20;30.80;;;;;;5011757;28;20396;-57
2021/03/11 01:37:33;;;;;;;1.58;1.20;;;20.20;30.80;;;;;;5011330;28;20788;-57
2021/03/11 01:39:59;;;;;;;1.90;1.30;;;20.20;30.80;;;;;;5011511;28;20397;-56
2021/03/11 01:42:25;;;;;;;1.40;1.10;;;20.20;30.90;;;;;;5011752;28;20389;-57
2021/03/11 01:44:50;;;;;;;1.53;1.07;;;20.20;30.90;;;;;;5011803;28;20424;-57
2021/03/11 01:47:17;;;;;;;1.52;1.05;;;20.20;30.80;;;;;;5011229;28;20535;-56
2021/03/11 01:49:43;;;;;;;1.50;1.20;;;20.10;30.80;;;;;;5010569;28;20488;-56
2021/03/11 01:52:09;;;;;;;1.33;1.00;;;20.10;30.80;;;;;;5011711;28;20517;-57
2021/03/11 01:54:35;;;;;;;1.63;1.17;;;20.20;30.90;;;;;;5011658;28;20389;-57
2021/03/11 01:57:01;;;;;;;1.50;1.10;;;20.10;30.80;;;;;;5011666;28;20895;-57
2021/03/11 01:59:28;;;;;;;1.52;1.20;;;20.20;30.80;;;;;;5011393;28;20403;-56
2021/03/11 02:01:55;;;;;;;1.35;1.10;;;20.20;30.70;;;;;;5011097;28;20428;-56
2021/03/11 02:04:21;;;;;;;1.35;1.00;;;20.20;30.80;;;;;;5024818;28;20379;-57
2021/03/11 02:06:46;;;;;;;1.42;1.10;;;20.10;30.70;;;;;;5030912;28;20450;-56
2021/03/11 02:09:12;;;;;;;1.30;1.00;;;20.20;30.80;;;;;;5031074;28;20437;-56
2021/03/11 02:11:43;;;;;;;1.20;1.00;;;20.10;30.80;;;;;;5030650;28;20779;-56
2021/03/11 02:14:47;;;;;;;1.27;1.02;;;20.20;30.70;;;;;;5031133;28;20391;-56
2021/03/11 02:17:17;;;;;;;1.20;0.95;;;20.20;30.90;;;;;;5039834;28;20418;-56
2021/03/11 02:20:10;;;;;;;1.40;1.10;;;20.10;31.10;;;;;;5030092;28;20425;-56
2021/03/11 02:23:06;;;;;;;1.40;1.02;;;20.10;31.00;;;;;;5031056;28;20391;-56
2021/03/11 02:25:44;;;;;;;1.30;1.10;;;20.10;30.90;;;;;;5030845;28;20387;-57
2021/03/11 02:28:23;;;;;;;1.10;0.98;;;20.10;30.80;;;;;;5031007;28;20395;-57
2021/03/11 02:30:49;;;;;;;1.65;1.10;;;20.10;30.70;;;;;;5030700;28;20431;-57
2021/03/11 02:33:16;;;;;;;1.20;1.00;;;20.10;30.60;;;;;;5030410;28;20387;-57
2021/03/11 02:35:42;;;;;;;1.58;1.05;;;20.00;30.60;;;;;;5031480;28;20399;-57
2021/03/11 02:38:12;;;;;;;1.77;1.00;;;20.00;30.80;;;;;;5034934;28;20426;-57
2021/03/11 02:40:38;;;;;;;1.40;1.10;;;19.90;30.90;;;;;;5034966;28;20457;-57
2021/03/11 02:43:10;;;;;;;1.73;1.15;;;19.90;31.00;;;;;;5034856;28;20394;-57
2021/03/11 02:45:37;;;;;;;1.40;1.02;;;19.90;31.00;;;;;;5034529;28;20391;-57
2021/03/11 02:48:06;;;;;;;1.67;1.20;;;19.80;31.10;;;;;;5034772;28;20391;-57
2021/03/11 02:50:34;;;;;;;1.50;1.05;;;19.80;31.20;;;;;;5033743;28;20497;-57
2021/03/11 02:53:01;;;;;;;1.30;1.02;;;19.70;31.10;;;;;;5034751;28;20403;-57
2021/03/11 02:55:30;;;;;;;1.30;1.10;;;19.70;31.10;;;;;;5034522;28;21048;-57
2021/03/11 02:57:57;;;;;;;1.10;0.93;;;19.70;31.30;;;;;;5034145;28;20441;-57
2021/03/11 03:00:24;;;;;;;1.33;1.10;;;19.60;31.40;;;;;;5034519;28;20384;-57
2021/03/11 03:02:52;;;;;;;1.33;1.00;;;19.60;31.60;;;;;;5034594;28;20462;-57
2021/03/11 03:05:20;;;;;;;1.23;0.88;;;19.60;31.30;;;;;;5034382;28;20486;-57
2021/03/11 03:07:48;;;;;;;1.40;1.00;;;19.60;31.30;;;;;;5033967;28;20417;-56
2021/03/11 03:10:19;;;;;;;1.30;0.98;;;19.60;31.10;;;;;;5034243;28;20921;-57
2021/03/11 03:12:47;;;;;;;1.38;1.20;;;19.60;31.30;;;;;;5034318;28;20425;-57
2021/03/11 03:15:14;;;;;;;1.45;0.93;;;19.60;31.50;;;;;;5033726;28;20398;-57
2021/03/11 03:17:41;;;;;;;1.25;0.90;;;19.50;31.30;;;;;;5033717;28;20387;-57
2021/03/11 03:20:08;;;;;;;1.13;0.83;;;19.50;31.30;;;;;;5033831;28;20532;-57
2021/03/11 03:22:38;;;;;;;1.30;1.08;;;19.50;31.60;;;;;;5033340;28;20938;-56
2021/03/11 03:25:11;;;;;;;1.33;1.00;;;19.40;31.60;;;;;;5034085;28;20387;-57
2021/03/11 03:27:37;;;;;;;1.30;0.90;;;19.40;31.50;;;;;;5033878;28;20386;-57
2021/03/11 03:30:11;;;;;;;1.60;1.10;;;19.40;31.60;;;;;;5033788;28;20395;-56
2021/03/11 03:32:37;;;;;;;1.25;1.00;;;19.40;31.50;;;;;;5033499;28;20887;-56
2021/03/11 03:35:07;;;;;;;1.20;1.00;;;19.30;31.90;;;;;;5034054;28;20386;-56
2021/03/11 03:37:33;;;;;;;1.30;1.00;;;19.30;31.60;;;;;;5033196;28;20418;-56
2021/03/11 03:40:05;;;;;;;1.25;1.00;;;19.30;31.40;;;;;;5032320;28;20814;-56
2021/03/11 03:42:35;;;;;;;1.40;0.90;;;19.30;31.50;;;;;;5033877;28;20387;-57
2021/03/11 03:45:03;;;;;;;1.33;1.00;;;19.30;31.60;;;;;;5033764;28;20383;-56
2021/03/11 03:47:30;;;;;;;1.40;0.98;;;19.30;32.30;;;;;;5032549;28;20426;-56
2021/03/11 03:49:57;;;;;;;2.13;1.23;;;19.20;31.70;;;;;;5033106;28;20474;-56
2021/03/11 03:52:25;;;;;;;2.17;1.30;;;19.20;31.70;;;;;;5033602;28;20457;-56
2021/03/11 03:54:51;;;;;;;2.03;1.10;;;19.20;31.80;;;;;;5033579;28;20531;-56
2021/03/11 03:57:20;;;;;;;2.30;1.20;;;19.10;31.90;;;;;;5033375;28;20452;-56
2021/03/11 03:59:50;;;;;;;3.23;1.57;;;19.10;32.00;;;;;;5032919;28;20390;-56
2021/03/11 04:02:17;;;;;;;2.30;1.40;;;19.10;31.80;;;;;;5033296;28;20512;-56
2021/03/11 04:04:47;;;;;;;1.80;1.10;;;19.10;31.70;;;;;;5033398;28;20383;-56
2021/03/11 04:07:20;;;;;;;2.50;1.38;;;19.00;32.00;;;;;;5033291;28;20395;-57
2021/03/11 04:09:46;;;;;;;2.40;1.40;;;19.10;32.20;;;;;;5032737;28;20394;-56
2021/03/11 04:12:15;;;;;;;2.95;1.45;;;19.10;32.80;;;;;;5033483;28;20422;-57
2021/03/11 04:14:42;;;;;;;2.60;1.40;;;19.20;33.10;;;;;;5033185;28;20391;-56
2021/03/11 04:17:10;;;;;;;3.15;1.30;;;19.30;33.40;;;;;;5031730;28;20410;-57
2021/03/11 04:19:37;;;;;;;2.53;1.27;;;19.30;33.30;;;;;;5031515;28;20403;-57
2021/03/11 04:22:04;;;;;;;2.10;1.15;;;19.30;33.30;;;;;;5031635;28;20395;-57
2021/03/11 04:24:31;;;;;;;2.53;1.15;;;19.30;34.70;;;;;;5032901;28;20390;-57
2021/03/11 04:27:00;;;;;;;2.88;1.33;;;19.30;34.70;;;;;;5032844;28;20399;-57
2021/03/11 04:29:26;;;;;;;1.90;1.33;;;19.40;34.30;;;;;;5032694;28;20391;-57
2021/03/11 04:31:52;;;;;;;2.70;1.58;;;19.30;33.50;;;;;;5027063;28;20429;-57
2021/03/11 04:34:20;;;;;;;2.00;1.30;;;19.30;33.80;;;;;;5032301;28;20399;-57
2021/03/11 04:36:45;;;;;;;2.40;1.85;;;19.30;33.40;;;;;;5032114;28;20457;-57
2021/03/11 04:39:11;;;;;;;2.47;1.70;;;19.30;33.80;;;;;;5017842;28;20396;-57
2021/03/11 04:41:37;;;;;;;2.63;1.67;;;19.30;33.40;;;;;;5012892;28;20404;-57
2021/03/11 04:44:04;;;;;;;2.35;1.60;;;19.30;33.90;;;;;;5012678;28;20873;-57
2021/03/11 04:46:31;;;;;;;2.15;1.40;;;19.30;34.30;;;;;;5012750;28;20439;-57
2021/03/11 04:49:00;;;;;;;3.00;1.40;;;19.30;34.20;;;;;;5012701;28;20604;-57
2021/03/11 04:51:26;;;;;;;2.40;1.40;;;19.30;34.60;;;;;;5012449;28;20478;-57
2021/03/11 04:53:54;;;;;;;2.83;1.38;;;19.30;34.30;;;;;;5012194;28;20764;-58
2021/03/11 04:56:22;;;;;;;2.10;1.73;;;19.40;34.40;;;;;;5012368;28;20600;-58
2021/03/11 04:58:49;;;;;;;2.70;1.63;;;19.30;33.80;;;;;;5012128;28;20381;-57
2021/03/11 05:01:21;;;;;;;2.30;1.10;;;19.20;33.90;;;;;;5012463;28;20389;-57
2021/03/11 05:03:47;;;;;;;2.50;1.30;;;19.10;33.70;;;;;;5012000;28;20393;-58
2021/03/11 05:06:13;;;;;;;1.70;1.10;;;19.10;33.70;;;;;;5012331;28;20761;-57
2021/03/11 05:08:40;;;;;;;4.70;1.33;;;19.10;33.80;;;;;;5012479;28;20424;-57
2021/03/11 05:11:05;;;;;;;3.45;1.23;;;19.10;34.00;;;;;;5012346;28;20424;-57
2021/03/11 05:13:31;;;;;;;3.50;1.20;;;19.10;34.80;;;;;;5011993;28;20396;-56
2021/03/11 05:15:58;;;;;;;4.47;1.37;;;19.10;34.20;;;;;;5011753;28;21346;-57
2021/03/11 05:18:23;;;;;;;7.30;1.40;;;19.20;35.40;;;;;;5012075;28;20488;-57
2021/03/11 05:20:49;;;;;;;6.07;1.30;;;19.30;35.20;;;;;;5012065;28;20877;-57
2021/03/11 05:23:15;;;;;;;4.85;1.30;;;19.40;35.00;;;;;;5012144;28;20381;-57
2021/03/11 05:25:40;;;;;;;5.83;1.20;;;19.40;34.60;;;;;;5011752;28;20433;-58
2021/03/11 05:28:06;;;;;;;2.92;1.00;;;19.40;34.50;;;;;;5011879;28;20749;-57
2021/03/11 05:30:32;;;;;;;5.65;1.02;;;19.30;34.40;;;;;;5012173;28;20427;-58
2021/03/11 05:32:58;;;;;;;2.70;1.20;;;19.30;34.50;;;;;;5024806;28;20393;-58
2021/03/11 05:35:24;;;;;;;3.22;1.08;;;19.30;33.80;;;;;;5031278;28;20854;-57
2021/03/11 05:37:49;;;;;;;4.70;1.10;;;19.20;34.00;;;;;;5030592;28;20384;-57
2021/03/11 05:40:16;;;;;;;2.40;1.00;;;19.10;34.10;;;;;;5027249;28;20492;-57
2021/03/11 05:42:45;;;;;;;2.03;1.00;;;19.10;34.50;;;;;;5016691;28;20471;-57
2021/03/11 05:45:11;;;;;;;3.53;1.08;;;19.10;33.90;;;;;;5020620;28;20421;-56
2021/03/11 05:47:37;;;;;;;5.00;1.20;;;19.10;34.70;;;;;;5019747;28;20399;-56
2021/03/11 05:50:07;;;;;;;3.60;1.00;;;19.10;35.10;;;;;;5021406;28;20903;-57
2021/03/11 05:52:34;;;;;;;2.22;1.27;;;19.10;35.10;;;;;;5020388;28;20405;-56
2021/03/11 05:55:02;;;;;;;2.87;1.10;;;19.10;34.20;;;;;;5030144;28;20477;-56
2021/03/11 05:57:28;;;;;;;3.28;1.20;;;19.00;34.00;;;;;;5024501;28;20798;-57
2021/03/11 05:59:57;;;;;;;3.30;2.00;;;19.00;33.90;;;;;;5019707;28;20393;-56
2021/03/11 06:02:24;;;;;;;4.65;1.92;;;18.80;31.40;;;;;;5025905;28;20395;-56
2021/03/11 06:04:53;;;;;;;3.45;1.40;;;18.70;33.10;;;;;;5028859;28;20398;-56
2021/03/11 06:07:23;;;;;;;2.30;1.63;;;18.80;33.70;;;;;;5030546;28;20395;-56
2021/03/11 06:09:53;;;;;;;3.03;1.27;;;18.80;33.60;;;;;;5030219;28;20484;-56
2021/03/11 06:12:19;;;;;;;3.92;1.65;;;18.80;33.90;;;;;;5031095;28;20383;-56
2021/03/11 06:14:50;;;;;;;3.78;1.70;;;18.80;33.30;;;;;;5030946;28;20411;-56
2021/03/11 06:17:17;;;;;;;3.42;1.80;;;18.80;33.30;;;;;;5029818;28;20426;-56
2021/03/11 06:19:43;;;;;;;2.85;1.40;;;18.80;33.30;;;;;;5030773;28;20767;-56
2021/03/11 06:22:10;;;;;;;2.67;1.70;;;18.70;33.40;;;;;;5030858;28;20391;-56
2021/03/11 06:24:36;;;;;;;2.28;1.33;;;18.70;33.50;;;;;;5031254;28;20387;-56
2021/03/11 06:27:01;;;;;;;2.20;1.40;;;18.70;33.60;;;;;;5030813;28;20391;-56
2021/03/11 06:29:38;;;;;;;2.38;1.38;;;18.70;33.70;;;;;;5030784;28;20820;-56
2021/03/11 06:32:04;;;;;;;2.45;1.40;;;18.70;33.70;;;;;;5029983;28;20443;-56
2021/03/11 06:34:39;;;;;;;3.00;1.40;;;18.70;33.60;;;;;;5030480;28;20482;-56
2021/03/11 06:37:05;;;;;;;2.58;1.30;;;18.70;33.60;;;;;;5030939;28;20410;-56
2021/03/11 06:39:34;;;;;;;2.13;1.40;;;18.60;33.60;;;;;;5030751;28;20391;-56
2021/03/11 06:42:00;;;;;;;2.40;1.30;;;18.60;33.60;;;;;;5030481;28;20391;-56
2021/03/11 06:44:45;;;;;;;2.30;1.50;;;18.60;33.60;;;;;;5030780;28;20450;-56
2021/03/11 06:47:15;;;;;;;2.28;1.30;;;18.60;33.70;;;;;;5031103;28;20391;-56
2021/03/11 06:49:58;;;;;;;2.33;1.27;;;18.60;33.60;;;;;;5030713;28;20453;-56
2021/03/11 06:52:24;;;;;;;2.10;1.40;;;18.60;33.80;;;;;;5030852;28;20409;-56
2021/03/11 06:55:07;;;;;;;1.92;1.20;;;18.60;33.70;;;;;;5030758;28;20394;-56
2021/03/11 06:57:42;;;;;;;2.53;1.02;;;18.60;33.60;;;;;;5030689;28;20422;-56
2021/03/11 07:00:17;;;;;;;1.52;1.13;;;18.60;33.40;;;;;;5030522;28;20451;-56
2021/03/11 07:02:57;;;;;;;1.57;1.10;;;18.50;33.40;;;;;;5030613;28;21002;-57
2021/03/11 07:05:28;;;;;;;1.40;1.00;;;18.50;33.40;;;;;;5030640;28;20387;-56
2021/03/11 07:08:06;;;;;;;1.70;0.90;;;18.50;33.30;;;;;;5030187;28;20413;-56
2021/03/11 07:10:32;;;;;;;2.58;1.40;;;18.50;33.20;;;;;;5030497;28;20913;-56
2021/03/11 07:12:59;;;;;;;1.60;0.90;;;18.40;33.00;;;;;;5030520;28;20407;-56
2021/03/11 07:15:28;;;;;;;2.53;1.00;;;18.40;33.00;;;;;;5030103;28;20387;-56
2021/03/11 07:17:54;;;;;;;2.33;1.58;;;18.30;32.90;;;;;;5030255;28;20480;-56
2021/03/11 07:20:22;;;;;;;2.53;1.40;;;18.40;31.40;;;;;;5030458;28;20490;-56
2021/03/11 07:23:09;;;;;;;2.22;1.10;;;18.20;32.10;;;;;;5032464;28;20390;-56
2021/03/11 07:25:36;;;;;;;1.58;1.10;;;18.10;33.00;;;;;;5033978;28;20398;-56
2021/03/11 07:28:06;;;;;;;1.58;0.80;;;18.10;33.30;;;;;;5033364;28;20914;-56
2021/03/11 07:30:57;;;;;;;1.30;0.98;;;18.20;33.30;;;;;;5033175;28;20453;-56
2021/03/11 07:33:25;;;;;;;1.85;0.90;;;18.20;33.40;;;;;;5033827;28;20425;-56
2021/03/11 07:35:55;;;;;;;1.90;1.10;;;18.20;33.40;;;;;;5033202;28;20388;-57
2021/03/11 07:38:22;;;;;;;2.03;1.17;;;18.20;33.60;;;;;;5033961;28;20387;-56
2021/03/11 07:40:50;;;;;;;1.90;1.20;;;18.20;33.60;;;;;;5033820;28;20395;-56
2021/03/11 07:43:16;;;;;;;1.80;1.17;;;18.30;33.70;;;;;;5033637;28;20490;-56
2021/03/11 07:45:43;;;;;;;1.63;1.20;;;18.30;33.70;;;;;;5033654;28;20401;-56
2021/03/11 07:48:10;;;;;;;1.40;1.00;;;18.30;33.50;;;;;;5033119;28;20887;-56
2021/03/11 07:50:37;;;;;;;1.70;1.00;;;18.30;33.60;;;;;;5033633;28;20403;-56
2021/03/11 07:53:04;;;;;;;1.50;0.90;;;18.30;33.50;;;;;;5033632;28;20455;-56
2021/03/11 07:55:31;;;;;;;1.52;0.90;;;18.30;33.60;;;;;;5033305;28;20391;-56
2021/03/11 07:58:09;;;;;;;1.50;0.93;;;18.30;33.60;;;;;;5032863;28;20423;-56
2021/03/11 08:00:35;;;;;;;1.70;1.00;;;18.30;33.50;;;;;;5033547;28;20429;-56
2021/03/11 08:03:25;;;;;;;2.00;1.10;;;18.20;33.50;;;;;;5033422;28;20495;-56
2021/03/11 08:05:51;;;;;;;1.67;0.90;;;18.20;34.10;;;;;;5032949;28;20414;-56
2021/03/11 08:08:21;;;;;;;1.20;0.77;;;18.30;33.50;;;;;;5033178;28;20427;-56
2021/03/11 08:10:50;;;;;;;1.20;0.80;;;18.20;33.40;;;;;;5033233;28;20464;-56
2021/03/11 08:13:35;;;;;;;1.40;0.70;;;18.20;33.50;;;;;;5033390;28;20499;-56
2021/03/11 08:16:24;;;;;;;1.10;0.90;;;18.20;33.50;;;;;;5032765;28;20387;-56
2021/03/11 08:18:51;;;;;;;1.20;0.77;;;18.20;33.40;;;;;;5033068;28;20456;-56
2021/03/11 08:21:23;;;;;;;1.10;0.70;;;18.20;33.40;;;;;;5033162;28;20382;-57
2021/03/11 08:23:50;;;;;;;1.25;0.70;;;18.20;33.10;;;;;;5031589;28;20468;-56
2021/03/11 08:26:38;;;;;;;1.27;0.73;;;18.20;33.30;;;;;;5032885;28;20437;-57
2021/03/11 08:29:18;;;;;;;1.40;0.82;;;18.10;32.90;;;;;;5032615;28;20391;-56
2021/03/11 08:31:45;;;;;;;1.10;0.70;;;18.10;32.80;;;;;;5031368;28;20419;-56
2021/03/11 08:34:33;;;;;;;1.10;0.70;;;18.20;33.70;;;;;;5032023;28;20395;-56
2021/03/11 08:37:18;;;;;;;1.48;0.90;;;18.20;33.20;;;;;;5032741;28;20452;-56
2021/03/11 08:39:44;;;;;;;1.25;0.70;;;18.20;33.10;;;;;;5032739;28;20391;-56
2021/03/11 08:42:42;;;;;;;1.15;0.80;;;18.20;33.20;;;;;;5032227;28;20391;-56
2021/03/11 08:45:08;;;;;;;1.02;0.73;;;18.20;33.20;;;;;;5032167;28;20426;-56
2021/03/11 08:47:34;;;;;;;1.20;0.80;;;18.20;32.90;;;;;;5031066;28;20441;-56
2021/03/11 08:50:02;;;;;;;1.27;0.70;;;18.20;33.00;;;;;;5032016;28;20883;-56
2021/03/11 08:52:44;;;;;;;0.93;0.65;;;18.20;33.00;;;;;;5032316;28;20457;-56
2021/03/11 08:55:32;;;;;;;1.13;0.70;;;18.20;33.00;;;;;;5030996;28;20879;-56
2021/03/11 08:57:58;;;;;;;1.20;0.80;;;18.10;33.00;;;;;;5031990;28;20390;-56
2021/03/11 09:00:54;;;;;;;0.95;0.65;;;18.10;32.90;;;;;;5032430;28;20383;-56
2021/03/11 09:03:36;;;;;;;1.60;0.90;;;18.10;32.90;;;;;;5032168;28;20494;-56
2021/03/11 09:06:02;;;;;;;1.08;0.80;;;18.10;32.80;;;;;;5031691;28;20387;-56
2021/03/11 09:08:28;;;;;;;1.52;0.80;;;18.10;33.00;;;;;;5032206;28;20407;-56
2021/03/11 09:11:07;;;;;;;1.20;0.73;;;18.10;32.80;;;;;;5032130;28;20905;-56
2021/03/11 09:13:33;;;;;;;1.25;0.70;;;18.10;33.30;;;;;;5031981;28;20384;-56
2021/03/11 09:15:59;;;;;;;1.42;0.82;;;18.10;32.70;;;;;;5031720;28;20736;-56
2021/03/11 09:18:25;;;;;;;1.00;0.70;;;18.10;32.80;;;;;;5031925;28;20898;-56
2021/03/11 09:20:53;;;;;;;1.58;0.70;;;18.10;32.70;;;;;;5032088;28;20430;-56
2021/03/11 09:23:19;;;;;;;1.40;0.70;;;18.10;32.80;;;;;;5032000;28;20444;-55
2021/03/11 09:25:45;;;;;;;0.85;0.60;;;18.10;32.80;;;;;;5031901;28;20476;-55
2021/03/11 09:28:14;;;;;;;1.17;0.80;;;18.10;32.90;;;;;;5031057;28;20391;-56
2021/03/11 09:30:41;;;;;;;1.38;0.80;;;18.00;32.90;;;;;;5031772;28;20461;-56
2021/03/11 09:33:21;;;;;;;1.15;0.80;;;18.00;32.90;;;;;;5031768;28;20752;-55
2021/03/11 09:35:47;;;;;;;1.00;0.70;;;18.00;33.00;;;;;;5030550;28;20435;-56
2021/03/11 09:38:29;;;;;;;1.13;0.60;;;18.00;32.90;;;;;;5030742;28;20398;-55
2021/03/11 09:41:01;;;;;;;1.10;0.70;;;18.00;33.20;;;;;;5031808;28;20487;-55
2021/03/11 09:43:35;;;;;;;0.95;0.65;;;18.10;33.10;;;;;;5031458;28;20390;-55
2021/03/11 09:46:08;;;;;;;1.42;0.90;;;18.10;32.80;;;;;;5030444;28;20423;-56
2021/03/11 09:48:37;;;;;;;0.85;0.70;;;18.20;32.60;;;;;;5031571;28;20413;-55
2021/03/11 09:51:05;;;;;;;1.20;0.70;;;18.10;32.70;;;;;;5031595;28;20427;-56
2021/03/11 09:54:01;;;;;;;1.35;0.70;;;18.10;32.80;;;;;;5031413;28;20875;-56
2021/03/11 09:56:39;;;;;;;0.95;0.70;;;18.10;32.70;;;;;;5031271;28;20410;-56
2021/03/11 09:59:06;;;;;;;1.00;0.68;;;18.10;32.80;;;;;;5031418;28;20391;-56
2021/03/11 10:01:36;;;;;;;1.17;0.75;;;18.10;32.60;;;;;;5031256;28;20466;-55
2021/03/11 10:04:21;;;;;;;1.27;0.68;;;18.10;32.80;;;;;;5030896;28;20452;-57
2021/03/11 10:07:02;;;;;;;1.15;0.70;;;18.10;32.80;;;;;;5031255;28;20502;-56
2021/03/11 10:09:45;;;;;;;1.20;0.80;;;18.00;32.80;;;;;;5031084;28;20399;-56
2021/03/11 10:12:11;;;;;;;1.65;0.80;;;18.00;32.70;;;;;;5029310;28;20419;-56
2021/03/11 10:14:37;;;;;;;1.30;0.70;;;18.00;32.80;;;;;;5030555;28;20810;-55
2021/03/11 10:17:06;;;;;;;1.27;0.75;;;18.00;32.80;;;;;;5030822;28;20479;-55
2021/03/11 10:19:34;;;;;;;1.20;0.77;;;18.00;32.80;;;;;;5030843;28;20863;-56
2021/03/11 10:22:28;;;;;;;1.00;0.60;;;18.00;32.80;;;;;;5030316;28;20426;-56
2021/03/11 10:24:54;;;;;;;1.40;0.73;;;18.00;32.80;;;;;;5031647;28;20391;-56
2021/03/11 10:27:23;;;;;;;0.80;0.60;;;18.00;32.80;;;;;;5030724;28;20418;-55
2021/03/11 10:30:00;;;;;;;1.10;0.70;;;18.00;32.80;;;;;;5031194;28;20384;-56
2021/03/11 10:32:26;;;;;;;1.00;0.60;;;18.00;32.80;;;;;;5030350;28;20433;-55
2021/03/11 10:34:52;;;;;;;0.80;0.60;;;18.00;32.80;;;;;;5030566;28;20429;-56
2021/03/11 10:37:26;;;;;;;1.23;0.70;;;17.90;32.80;;;;;;5030781;28;20387;-56
2021/03/11 10:40:06;;;;;;;1.10;0.80;;;18.00;33.00;;;;;;5030873;28;20413;-56
2021/03/11 10:42:44;;;;;;;0.95;0.63;;;18.00;32.80;;;;;;5030949;28;20389;-56
2021/03/11 10:45:15;;;;;;;1.42;0.68;;;18.00;32.80;;;;;;5030931;28;20873;-56
2021/03/11 10:47:42;;;;;;;1.00;0.60;;;18.00;32.70;;;;;;5030886;28;20389;-56
2021/03/11 10:50:21;;;;;;;1.17;0.70;;;18.00;32.70;;;;;;5030248;28;20747;-55
2021/03/11 10:52:52;;;;;;;1.03;0.80;;;18.00;32.80;;;;;;5030792;28;20441;-55
2021/03/11 10:55:39;;;;;;;1.10;0.65;;;18.00;32.70;;;;;;5030790;28;20391;-56
2021/03/11 10:58:06;;;;;;;1.20;0.80;;;18.00;32.80;;;;;;5034212;28;20391;-56
2021/03/11 11:00:33;;;;;;;1.23;0.70;;;17.90;32.60;;;;;;5034646;28;20449;-55
2021/03/11 11:03:02;;;;;;;0.93;0.60;;;18.00;32.70;;;;;;5034656;28;20409;-56
2021/03/11 11:05:29;;;;;;;1.00;0.80;;;18.00;32.60;;;;;;5034400;28;20406;-56
2021/03/11 11:07:55;;;;;;;1.55;0.80;;;18.00;32.70;;;;;;5034413;28;20388;-55
2021/03/11 11:10:24;;;;;;;1.17;0.70;;;18.00;32.70;;;;;;5034330;28;20433;-55
2021/03/11 11:12:49;;;;;;;1.15;0.70;;;18.00;32.60;;;;;;5034486;28;20445;-55
2021/03/11 11:15:16;;;;;;;0.90;0.60;;;18.00;32.70;;;;;;5034182;28;20418;-56
2021/03/11 11:17:42;;;;;;;1.60;0.70;;;18.00;32.70;;;;;;5034618;28;20391;-56
2021/03/11 11:20:10;;;;;;;0.90;0.60;;;18.00;32.70;;;;;;5033761;28;20798;-56
2021/03/11 11:22:36;;;;;;;0.80;0.60;;;18.00;32.90;;;;;;5033650;28;20399;-56
2021/03/11 11:25:03;;;;;;;0.90;0.60;;;18.00;32.80;;;;;;5033710;28;20413;-56
2021/03/11 11:27:29;;;;;;;1.10;0.65;;;18.00;32.80;;;;;;5033985;28;20398;-56
2021/03/11 11:29:55;;;;;;;0.88;0.57;;;18.00;32.90;;;;;;5033849;28;20383;-56
2021/03/11 11:32:23;;;;;;;1.08;0.60;;;17.90;32.80;;;;;;5033513;28;20426;-56
2021/03/11 11:34:52;;;;;;;1.00;0.60;;;18.00;32.90;;;;;;5033958;28;20402;-56
2021/03/11 11:37:22;;;;;;;0.80;0.60;;;18.00;33.00;;;;;;5033763;28;20387;-56
2021/03/11 11:39:49;;;;;;;1.20;0.80;;;18.00;33.00;;;;;;5034010;28;20403;-56
2021/03/11 11:42:15;;;;;;;1.00;0.63;;;17.90;32.80;;;;;;5033101;28;20426;-56
2021/03/11 11:44:42;;;;;;;1.02;0.65;;;17.90;32.80;;;;;;5033909;28;20469;-56
2021/03/11 11:47:08;;;;;;;1.02;0.65;;;17.90;33.00;;;;;;5033726;28;20949;-56
2021/03/11 11:49:34;;;;;;;0.93;0.60;;;18.00;32.90;;;;;;5033691;28;20410;-56
2021/03/11 11:52:00;;;;;;;0.75;0.60;;;18.00;33.00;;;;;;5033147;28;20407;-56
2021/03/11 11:54:26;;;;;;;0.70;0.50;;;17.90;32.90;;;;;;5033604;28;20881;-56
2021/03/11 11:56:53;;;;;;;0.73;0.55;;;17.90;32.90;;;;;;5033616;28;20388;-57
2021/03/11 11:59:19;;;;;;;0.90;0.60;;;17.90;32.80;;;;;;5033545;28;20945;-56
2021/03/11 12:01:45;;;;;;;1.52;0.65;;;17.90;32.70;;;;;;5033546;28;20885;-56
2021/03/11 12:04:11;;;;;;;1.10;0.80;;;17.90;32.80;;;;;;5032809;28;20391;-56
2021/03/11 12:06:41;;;;;;;0.98;0.60;;;17.90;32.90;;;;;;5033412;28;20391;-56
2021/03/11 12:09:07;;;;;;;1.30;0.70;;;17.90;33.00;;;;;;5032520;28;20739;-56
2021/03/11 12:11:34;;;;;;;0.93;0.60;;;17.90;33.10;;;;;;5033178;28;20426;-56
2021/03/11 12:14:01;;;;;;;0.85;0.50;;;17.90;33.20;;;;;;5033128;28;20403;-56
2021/03/11 12:16:27;;;;;;;1.20;0.60;;;17.80;33.20;;;;;;5033152;28;20395;-56
2021/03/11 12:18:53;;;;;;;1.20;0.70;;;17.90;33.20;;;;;;5033475;28;20403;-56
2021/03/11 12:21:19;;;;;;;0.80;0.55;;;17.90;33.30;;;;;;5033197;28;20399;-56
2021/03/11 12:23:45;;;;;;;0.80;0.60;;;17.90;33.30;;;;;;5033086;28;20445;-56
2021/03/11 12:26:11;;;;;;;1.15;0.70;;;17.90;33.10;;;;;;5032310;28;20453;-56
2021/03/11 12:28:37;;;;;;;0.93;0.60;;;17.90;33.30;;;;;;5033279;28;20485;-56
2021/03/11 12:31:03;;;;;;;1.00;0.70;;;17.90;33.20;;;;;;5031497;28;20850;-56
2021/03/11 12:33:29;;;;;;;0.90;0.63;;;17.90;33.20;;;;;;5032741;28;20435;-56
2021/03/11 12:35:55;;;;;;;1.20;0.60;;;18.00;33.30;;;;;;5032820;28;20383;-56
2021/03/11 12:38:21;;;;;;;1.10;0.63;;;18.00;33.40;;;;;;5032385;28;20402;-56
2021/03/11 12:40:47;;;;;;;0.80;0.60;;;18.00;33.50;;;;;;5032799;28;20383;-56
2021/03/11 12:43:13;;;;;;;1.02;0.60;;;18.00;33.30;;;;;;5032694;28;20899;-56
2021/03/11 12:45:38;;;;;;;0.90;0.50;;;18.00;33.20;;;;;;5032656;28;20453;-56
2021/03/11 12:48:05;;;;;;;0.90;0.60;;;18.00;33.10;;;;;;5032230;28;20470;-56
2021/03/11 12:50:31;;;;;;;0.80;0.60;;;18.00;33.10;;;;;;5032529;28;20506;-56
2021/03/11 12:52:57;;;;;;;0.90;0.60;;;18.00;33.00;;;;;;5032602;28;20394;-56
2021/03/11 12:55:22;;;;;;;1.00;0.60;;;18.00;33.00;;;;;;5032027;28;20447;-56
2021/03/11 12:57:48;;;;;;;1.10;0.70;;;18.10;33.10;;;;;;5032060;28;20398;-56